Time;durP1;ratioP1;P1;durP2;ratioP2;P2;SDS_P1;SDS_P2;PMS_P1;PMS_P2;Temp;Humidity;BMP_temperature;BMP_pressure;BME280_temperature;BME280_humidity;BME280_pressure;Samples;Min_cycle;Max_cycle;Signal;HPM_P1;HPM_P2
2022/07/16 03:02:13;;;;;;;0.90;0.60;;;19.80;54.70;;;;;;5311376;23;20490;-80
2022/07/16 03:04:40;;;;;;;1.00;0.60;;;19.80;54.50;;;;;;4959950;29;20455;-81
2022/07/16 03:07:07;;;;;;;0.70;0.60;;;19.80;54.80;;;;;;4959318;29;20518;-79
2022/07/16 03:09:34;;;;;;;0.77;0.67;;;19.80;54.70;;;;;;4960235;29;20868;-81
2022/07/16 03:12:01;;;;;;;0.70;0.60;;;19.80;54.70;;;;;;4959701;29;20466;-80
2022/07/16 03:14:28;;;;;;;1.00;0.70;;;19.80;54.40;;;;;;4961370;29;20462;-80
2022/07/16 03:16:54;;;;;;;0.80;0.60;;;19.80;54.40;;;;;;4959579;29;20506;-81
2022/07/16 03:19:22;;;;;;;0.70;0.57;;;19.80;54.70;;;;;;4959828;29;20575;-80
2022/07/16 03:21:49;;;;;;;0.73;0.73;;;19.70;54.50;;;;;;4959287;29;20998;-80
2022/07/16 03:24:16;;;;;;;0.80;0.60;;;19.70;54.40;;;;;;4959646;29;20884;-80
2022/07/16 03:26:42;;;;;;;0.70;0.60;;;19.70;54.30;;;;;;4959659;29;20493;-80
2022/07/16 03:29:09;;;;;;;0.80;0.63;;;19.70;54.30;;;;;;4959181;29;20568;-80
2022/07/16 03:31:36;;;;;;;0.70;0.60;;;19.70;54.30;;;;;;4959677;29;20521;-80
2022/07/16 03:34:02;;;;;;;0.70;0.60;;;19.70;54.80;;;;;;4959712;29;20451;-80
2022/07/16 03:36:30;;;;;;;1.77;0.70;;;19.70;54.90;;;;;;4959705;29;20518;-81
2022/07/16 03:39:04;;;;;;;1.00;0.90;;;19.60;55.40;;;;;;4959612;29;20856;-80
2022/07/16 03:41:31;;;;;;;0.80;0.70;;;19.60;55.50;;;;;;4959498;29;20499;-80
2022/07/16 03:43:58;;;;;;;0.80;0.70;;;19.50;55.80;;;;;;4957492;29;20474;-77
2022/07/16 03:46:25;;;;;;;0.70;0.60;;;19.50;55.90;;;;;;4957178;29;20542;-78
2022/07/16 03:48:51;;;;;;;0.70;0.60;;;19.40;56.40;;;;;;4956926;28;20453;-77
2022/07/16 03:51:18;;;;;;;0.70;0.70;;;19.40;56.90;;;;;;4957118;29;20483;-77
2022/07/16 03:53:46;;;;;;;0.80;0.70;;;19.20;56.90;;;;;;4957368;29;20455;-78
2022/07/16 03:56:13;;;;;;;0.90;0.70;;;19.10;57.30;;;;;;4957109;29;20447;-77
2022/07/16 03:58:40;;;;;;;0.70;0.63;;;19.00;57.70;;;;;;4957150;29;20451;-78
2022/07/16 04:01:07;;;;;;;0.70;0.70;;;19.00;57.90;;;;;;4956782;29;20993;-78
2022/07/16 04:03:34;;;;;;;0.70;0.60;;;18.90;58.10;;;;;;4957188;29;20531;-78
2022/07/16 04:06:01;;;;;;;0.80;0.70;;;18.90;58.10;;;;;;4956426;29;20913;-78
2022/07/16 04:08:28;;;;;;;0.70;0.70;;;18.90;57.70;;;;;;4957042;29;20459;-79
2022/07/16 04:10:56;;;;;;;0.70;0.70;;;18.90;57.60;;;;;;4956664;29;20467;-78
2022/07/16 04:13:22;;;;;;;0.83;0.60;;;18.90;57.80;;;;;;4956703;29;20486;-78
2022/07/16 04:15:49;;;;;;;0.70;0.67;;;18.90;58.10;;;;;;4956614;29;20447;-79
2022/07/16 04:18:16;;;;;;;0.70;0.63;;;18.90;58.00;;;;;;4956416;29;20451;-78
2022/07/16 04:20:43;;;;;;;0.70;0.60;;;18.90;57.90;;;;;;4956626;29;20474;-79
2022/07/16 04:23:09;;;;;;;0.70;0.67;;;18.90;58.30;;;;;;4956260;29;20482;-78
2022/07/16 04:25:36;;;;;;;0.80;0.70;;;18.90;58.90;;;;;;4956221;29;20516;-79
2022/07/16 04:28:04;;;;;;;0.70;0.60;;;19.00;58.80;;;;;;4956507;29;20451;-78
2022/07/16 04:30:32;;;;;;;2.20;0.60;;;19.00;58.80;;;;;;4956299;28;20455;-78
2022/07/16 04:32:59;;;;;;;0.70;0.60;;;19.00;59.10;;;;;;4956212;29;20451;-78
2022/07/16 04:35:25;;;;;;;0.80;0.73;;;19.00;59.40;;;;;;4956466;29;20451;-78
2022/07/16 04:37:52;;;;;;;0.70;0.60;;;18.90;59.50;;;;;;4956379;29;20447;-78
2022/07/16 04:40:19;;;;;;;0.70;0.70;;;19.00;59.60;;;;;;4956275;29;20459;-78
2022/07/16 04:42:46;;;;;;;0.70;0.60;;;18.90;59.80;;;;;;4955959;29;20982;-78
2022/07/16 04:45:14;;;;;;;0.70;0.60;;;18.80;60.20;;;;;;4956360;29;20509;-79
2022/07/16 04:47:41;;;;;;;0.70;0.60;;;18.80;60.30;;;;;;4955895;29;20542;-79
2022/07/16 04:50:09;;;;;;;2.13;0.70;;;18.70;60.80;;;;;;4956006;29;20450;-78
2022/07/16 04:52:36;;;;;;;0.70;0.70;;;18.80;60.80;;;;;;4955812;28;20933;-79
2022/07/16 04:55:03;;;;;;;0.70;0.60;;;18.90;60.40;;;;;;4955945;28;20502;-79
2022/07/16 04:57:29;;;;;;;0.70;0.70;;;19.00;60.30;;;;;;4956064;29;20447;-78
2022/07/16 04:59:56;;;;;;;0.80;0.60;;;19.00;59.40;;;;;;4955146;28;20454;-79
2022/07/16 05:05:09;;;;;;;0.70;0.70;;;18.10;63.40;;;;;;4956059;29;20431;-79
2022/07/16 05:07:36;;;;;;;0.70;0.70;;;18.30;61.30;;;;;;4955859;28;20494;-79
2022/07/16 05:10:04;;;;;;;0.70;0.70;;;18.30;61.30;;;;;;4955776;29;20514;-79
2022/07/16 05:12:30;;;;;;;0.80;0.70;;;18.30;61.10;;;;;;4955546;29;20526;-79
2022/07/16 05:14:57;;;;;;;0.80;0.63;;;18.40;61.30;;;;;;4955896;29;20947;-79
2022/07/16 05:17:25;;;;;;;0.80;0.70;;;18.50;61.10;;;;;;4955576;29;20789;-79
2022/07/16 05:19:51;;;;;;;0.70;0.70;;;18.70;60.90;;;;;;4955216;29;21010;-79
2022/07/16 05:22:18;;;;;;;0.70;0.70;;;18.90;60.40;;;;;;4955172;29;20462;-79
2022/07/16 05:24:45;;;;;;;0.80;0.60;;;19.10;59.50;;;;;;4955559;29;20451;-79
2022/07/16 05:27:11;;;;;;;0.70;0.70;;;19.30;58.20;;;;;;4955414;29;20512;-79
2022/07/16 05:29:38;;;;;;;0.87;0.70;;;19.40;57.90;;;;;;4955440;29;20455;-79
2022/07/16 05:32:06;;;;;;;0.80;0.80;;;19.70;58.40;;;;;;4955395;29;20522;-78
2022/07/16 05:34:34;;;;;;;0.70;0.60;;;19.80;57.50;;;;;;4955646;29;20459;-80
2022/07/16 05:37:00;;;;;;;0.80;0.70;;;20.10;57.20;;;;;;4955122;29;21016;-79
2022/07/16 05:39:27;;;;;;;0.70;0.60;;;20.30;56.80;;;;;;4955414;29;20467;-79
2022/07/16 05:41:54;;;;;;;0.90;0.70;;;20.50;55.30;;;;;;4955615;29;20512;-79
2022/07/16 05:44:20;;;;;;;0.80;0.70;;;20.50;55.90;;;;;;4955570;29;20483;-79
2022/07/16 05:46:47;;;;;;;0.70;0.60;;;20.80;55.70;;;;;;4955179;29;20541;-79
2022/07/16 05:49:13;;;;;;;0.70;0.60;;;21.00;55.80;;;;;;4955372;29;20450;-79
2022/07/16 05:51:41;;;;;;;0.80;0.80;;;21.20;53.90;;;;;;4955373;29;20932;-78
2022/07/16 05:54:08;;;;;;;0.70;0.60;;;21.40;54.20;;;;;;4955344;29;20595;-79
2022/07/16 05:56:35;;;;;;;0.70;0.60;;;21.70;53.20;;;;;;4955940;29;20517;-76
2022/07/16 05:59:02;;;;;;;0.80;0.60;;;21.90;53.50;;;;;;4954710;29;20871;-76
2022/07/16 06:01:29;;;;;;;0.70;0.60;;;22.20;53.10;;;;;;4954632;28;20517;-76
2022/07/16 06:03:56;;;;;;;0.70;0.63;;;22.20;52.40;;;;;;4954968;29;20539;-76
2022/07/16 06:06:23;;;;;;;0.70;0.60;;;22.30;53.20;;;;;;4954872;29;20486;-76
2022/07/16 06:08:51;;;;;;;0.70;0.60;;;22.30;52.40;;;;;;4954991;29;20447;-75
2022/07/16 06:11:17;;;;;;;0.70;0.60;;;22.10;52.40;;;;;;4956307;28;20467;-76
2022/07/16 06:13:44;;;;;;;0.70;0.60;;;22.00;52.60;;;;;;4958409;29;20468;-75
2022/07/16 06:16:11;;;;;;;0.70;0.70;;;21.70;53.20;;;;;;4959527;29;20455;-79
2022/07/16 06:18:37;;;;;;;0.80;0.60;;;21.60;53.20;;;;;;4960261;29;20454;-79
2022/07/16 06:21:04;;;;;;;0.70;0.60;;;21.80;53.10;;;;;;4960274;29;20892;-79
2022/07/16 06:23:31;;;;;;;0.80;0.60;;;21.50;53.20;;;;;;4958150;29;20943;-76
2022/07/16 06:25:59;;;;;;;0.90;0.70;;;21.90;53.90;;;;;;4958000;29;21009;-77
2022/07/16 06:28:26;;;;;;;0.70;0.60;;;22.20;53.40;;;;;;4958356;29;20450;-76
2022/07/16 06:30:52;;;;;;;0.70;0.70;;;22.40;53.90;;;;;;4958229;29;20467;-76
2022/07/16 06:33:19;;;;;;;0.70;0.60;;;22.50;53.40;;;;;;4958259;29;20451;-77
2022/07/16 06:35:46;;;;;;;0.70;0.70;;;22.80;52.70;;;;;;4958185;29;20501;-77
2022/07/16 06:38:13;;;;;;;0.80;0.67;;;23.20;52.20;;;;;;4958275;29;20534;-77
2022/07/16 06:40:42;;;;;;;0.70;0.60;;;23.40;52.10;;;;;;4958949;29;20482;-77
2022/07/16 06:43:10;;;;;;;0.70;0.67;;;23.50;51.80;;;;;;4960701;29;20481;-78
2022/07/16 06:45:37;;;;;;;0.87;0.80;;;23.40;52.10;;;;;;4960119;29;20501;-78
2022/07/16 06:48:04;;;;;;;0.80;0.80;;;23.40;52.00;;;;;;4957931;28;20893;-77
2022/07/16 06:50:30;;;;;;;0.70;0.60;;;23.70;50.60;;;;;;4958195;29;20454;-77
2022/07/16 06:52:57;;;;;;;0.87;0.80;;;24.00;50.70;;;;;;4957913;29;20451;-77
2022/07/16 06:55:24;;;;;;;1.07;0.70;;;24.00;49.40;;;;;;4958228;29;20460;-77
2022/07/16 06:57:50;;;;;;;1.70;0.70;;;23.80;50.70;;;;;;4958682;29;20443;-77
2022/07/16 07:00:18;;;;;;;0.70;0.60;;;23.60;50.40;;;;;;4958666;29;20458;-77
2022/07/16 07:02:45;;;;;;;0.70;0.60;;;23.70;50.60;;;;;;4957459;29;20479;-77
2022/07/16 07:05:12;;;;;;;0.70;0.70;;;23.40;50.50;;;;;;4957866;28;20506;-77
2022/07/16 07:07:38;;;;;;;0.70;0.63;;;23.80;50.10;;;;;;4957485;29;20482;-77
2022/07/16 07:10:06;;;;;;;0.60;0.57;;;23.40;49.30;;;;;;4957780;29;20459;-77
2022/07/16 07:12:34;;;;;;;0.70;0.60;;;23.70;51.10;;;;;;4957691;29;20885;-77
2022/07/16 07:15:01;;;;;;;0.70;0.60;;;23.80;51.00;;;;;;4957488;29;20451;-74
2022/07/16 07:17:29;;;;;;;0.70;0.63;;;24.10;50.00;;;;;;4957000;29;20508;-75
2022/07/16 07:19:55;;;;;;;0.80;0.70;;;24.50;48.70;;;;;;4957327;29;20509;-74
2022/07/16 07:22:22;;;;;;;0.90;0.80;;;24.70;48.90;;;;;;4956259;28;20471;-74
2022/07/16 07:24:50;;;;;;;1.63;0.70;;;24.70;48.60;;;;;;4957283;29;20451;-74
2022/07/16 07:27:18;;;;;;;0.70;0.70;;;24.90;48.80;;;;;;4957301;29;20479;-77
2022/07/16 07:29:45;;;;;;;0.80;0.73;;;24.70;47.80;;;;;;4957119;28;20806;-76
2022/07/16 07:32:11;;;;;;;0.70;0.60;;;24.40;48.90;;;;;;4957026;29;20470;-77
2022/07/16 07:34:40;;;;;;;0.70;0.50;;;24.70;47.70;;;;;;4956907;29;20451;-76
2022/07/16 07:37:06;;;;;;;0.73;0.60;;;25.10;45.30;;;;;;4956922;29;20794;-76
2022/07/16 07:39:34;;;;;;;0.70;0.60;;;25.00;45.00;;;;;;4956873;29;20501;-77
2022/07/16 07:42:00;;;;;;;1.10;0.77;;;24.90;47.90;;;;;;4956836;28;20510;-76
2022/07/16 07:44:27;;;;;;;0.70;0.60;;;25.00;46.20;;;;;;4956503;29;20870;-77
2022/07/16 07:46:54;;;;;;;0.70;0.50;;;24.90;45.80;;;;;;4956731;29;20553;-76
2022/07/16 07:49:21;;;;;;;0.70;0.60;;;24.90;46.70;;;;;;4956706;29;20446;-76
2022/07/16 07:51:49;;;;;;;0.90;0.60;;;25.00;46.60;;;;;;4956618;29;20479;-76
2022/07/16 07:54:16;;;;;;;1.27;0.70;;;25.20;46.40;;;;;;4956577;29;20513;-76
2022/07/16 07:56:43;;;;;;;1.07;0.50;;;25.30;46.40;;;;;;4956644;29;20450;-76
2022/07/16 07:59:09;;;;;;;0.70;0.60;;;25.60;44.60;;;;;;4956496;29;20507;-76
2022/07/16 08:01:36;;;;;;;1.00;0.60;;;25.70;42.70;;;;;;4956120;29;20487;-76
2022/07/16 08:04:03;;;;;;;0.70;0.60;;;25.50;44.90;;;;;;4956827;29;20804;-76
2022/07/16 08:06:29;;;;;;;0.70;0.60;;;25.40;46.00;;;;;;4956412;29;20451;-76
2022/07/16 08:08:57;;;;;;;0.80;0.63;;;25.70;46.10;;;;;;4956307;29;20455;-76
2022/07/16 08:11:24;;;;;;;0.70;0.60;;;26.00;45.60;;;;;;4956229;29;20498;-76
2022/07/16 08:13:50;;;;;;;0.70;0.60;;;26.10;46.20;;;;;;4956221;29;20459;-76
2022/07/16 08:16:17;;;;;;;0.70;0.60;;;26.40;45.00;;;;;;4955901;29;20875;-77
2022/07/16 08:18:44;;;;;;;2.90;0.90;;;26.60;45.50;;;;;;4955865;29;20943;-76
2022/07/16 08:21:10;;;;;;;1.00;0.60;;;26.70;45.20;;;;;;4956101;28;20554;-76
2022/07/16 08:26:24;;;;;;;0.80;0.70;;;26.70;43.90;;;;;;4956155;29;20454;-76
2022/07/16 08:28:51;;;;;;;0.70;0.60;;;26.70;43.50;;;;;;4955898;29;20518;-76
2022/07/16 08:31:18;;;;;;;0.70;0.60;;;26.80;43.10;;;;;;4955627;29;20983;-77
2022/07/16 08:33:44;;;;;;;0.70;0.60;;;26.80;42.70;;;;;;4955786;28;20510;-74
2022/07/16 08:36:11;;;;;;;0.70;0.60;;;26.50;43.30;;;;;;4955858;29;20501;-77
2022/07/16 08:38:38;;;;;;;0.90;0.60;;;26.00;43.80;;;;;;4955832;29;20506;-75
2022/07/16 08:41:06;;;;;;;0.70;0.50;;;25.80;43.90;;;;;;4955730;29;20470;-73
2022/07/16 08:43:35;;;;;;;0.70;0.60;;;25.80;45.10;;;;;;4955608;29;21000;-79
2022/07/16 08:46:02;;;;;;;0.70;0.50;;;25.80;44.90;;;;;;4956150;29;20451;-78
2022/07/16 08:48:30;;;;;;;0.70;0.60;;;25.70;43.80;;;;;;4955778;28;20483;-78
2022/07/16 08:51:01;;;;;;;0.70;0.60;;;25.80;44.20;;;;;;4955997;29;20561;-78
2022/07/16 08:53:30;;;;;;;1.10;0.60;;;26.00;43.00;;;;;;4956123;29;20435;-77
2022/07/16 08:55:59;;;;;;;0.70;0.60;;;26.20;43.30;;;;;;4955981;29;20505;-78
2022/07/16 08:58:26;;;;;;;0.70;0.57;;;26.20;43.50;;;;;;4955640;29;20868;-78
2022/07/16 09:00:54;;;;;;;0.70;0.60;;;26.30;42.30;;;;;;4955429;29;20898;-79
2022/07/16 09:03:21;;;;;;;0.80;0.70;;;26.30;42.30;;;;;;4956025;29;20463;-78
2022/07/16 09:05:50;;;;;;;0.80;0.60;;;26.40;42.40;;;;;;4955596;29;20510;-80
2022/07/16 09:08:17;;;;;;;0.70;0.50;;;26.50;42.00;;;;;;4955521;29;20533;-79
2022/07/16 09:10:44;;;;;;;0.83;0.70;;;26.40;42.80;;;;;;4955379;29;21053;-79
2022/07/16 09:13:19;;;;;;;0.70;0.60;;;26.60;42.00;;;;;;4955995;29;20455;-79
2022/07/16 09:15:46;;;;;;;0.67;0.50;;;26.40;42.60;;;;;;4955564;29;20457;-79
2022/07/16 09:18:20;;;;;;;0.70;0.60;;;26.40;42.10;;;;;;4955132;29;20549;-79
2022/07/16 09:20:51;;;;;;;0.70;0.60;;;26.40;42.20;;;;;;4955155;29;20570;-79
2022/07/16 09:23:27;;;;;;;0.90;0.53;;;26.50;41.70;;;;;;4955185;29;20440;-79
2022/07/16 09:25:56;;;;;;;0.70;0.60;;;26.70;41.60;;;;;;4955605;29;20446;-79
2022/07/16 09:28:25;;;;;;;0.67;0.50;;;26.90;41.60;;;;;;4955187;29;21057;-79
2022/07/16 09:30:51;;;;;;;0.70;0.70;;;27.10;42.20;;;;;;4955290;29;20471;-79
2022/07/16 09:33:21;;;;;;;0.90;0.60;;;27.30;40.80;;;;;;4955319;29;20455;-79
2022/07/16 09:35:49;;;;;;;0.70;0.60;;;27.10;41.10;;;;;;4955274;29;20451;-78
2022/07/16 09:38:16;;;;;;;0.70;0.60;;;27.00;41.40;;;;;;4955341;29;20443;-79
2022/07/16 09:40:45;;;;;;;0.70;0.50;;;26.90;41.30;;;;;;4955108;29;20521;-79
2022/07/16 09:43:20;;;;;;;0.70;0.70;;;27.00;40.90;;;;;;4955283;29;20534;-79
2022/07/16 09:45:48;;;;;;;0.70;0.60;;;27.00;42.50;;;;;;4955921;28;20482;-79
2022/07/16 09:48:25;;;;;;;0.70;0.50;;;27.00;41.10;;;;;;4959006;29;20534;-79
2022/07/16 09:50:58;;;;;;;0.70;0.57;;;27.10;40.20;;;;;;4959054;29;20470;-79
2022/07/16 09:53:26;;;;;;;0.80;0.57;;;27.10;40.40;;;;;;4958608;29;20530;-79
2022/07/16 09:55:59;;;;;;;0.70;0.60;;;27.20;40.80;;;;;;4958446;29;20513;-79
2022/07/16 09:58:25;;;;;;;0.70;0.70;;;27.00;41.00;;;;;;4958988;29;20861;-79
2022/07/16 10:00:52;;;;;;;0.70;0.60;;;27.10;41.40;;;;;;4958656;29;20475;-79
2022/07/16 10:03:19;;;;;;;0.70;0.50;;;27.10;40.50;;;;;;4958905;28;20435;-79
2022/07/16 10:05:48;;;;;;;0.60;0.50;;;27.30;41.20;;;;;;4958741;29;20537;-79
2022/07/16 10:08:15;;;;;;;0.60;0.60;;;27.30;41.50;;;;;;4958656;29;20538;-79
2022/07/16 10:10:42;;;;;;;0.70;0.60;;;26.90;40.70;;;;;;4958545;29;20442;-79
2022/07/16 10:13:10;;;;;;;0.70;0.70;;;26.80;42.70;;;;;;4958749;29;20478;-79
2022/07/16 10:15:37;;;;;;;0.70;0.60;;;26.70;42.20;;;;;;4958466;29;20454;-77
2022/07/16 10:18:05;;;;;;;0.70;0.60;;;26.60;42.10;;;;;;4958375;29;20450;-76
2022/07/16 10:20:36;;;;;;;0.70;0.60;;;26.70;40.90;;;;;;4958201;29;20865;-76
2022/07/16 10:23:06;;;;;;;0.70;0.60;;;27.00;41.40;;;;;;4958301;29;20437;-73
2022/07/16 10:25:35;;;;;;;0.70;0.60;;;27.10;41.20;;;;;;4958124;29;20486;-73
2022/07/16 10:28:02;;;;;;;0.70;0.60;;;27.10;40.00;;;;;;4958322;29;20572;-72
2022/07/16 10:30:30;;;;;;;0.70;0.57;;;27.10;39.50;;;;;;4957876;29;21022;-71
2022/07/16 10:33:17;;;;;;;0.80;0.60;;;26.90;40.40;;;;;;4958073;29;20542;-70
2022/07/16 10:35:49;;;;;;;0.63;0.50;;;26.80;41.20;;;;;;4958064;29;20431;-71
2022/07/16 10:38:20;;;;;;;0.77;0.50;;;26.60;42.00;;;;;;4958033;29;20521;-71
2022/07/16 10:41:04;;;;;;;0.90;0.70;;;26.90;41.20;;;;;;4957588;29;20974;-71
2022/07/16 10:43:31;;;;;;;0.70;0.60;;;27.10;41.00;;;;;;4957834;29;20446;-71
2022/07/16 10:45:59;;;;;;;0.70;0.50;;;27.10;41.80;;;;;;4957809;29;20457;-71
2022/07/16 10:48:28;;;;;;;0.70;0.60;;;27.10;41.00;;;;;;4957747;29;20893;-73
2022/07/16 10:51:15;;;;;;;0.73;0.60;;;27.20;41.00;;;;;;4958021;29;20554;-71
2022/07/16 10:54:30;;;;;;;0.70;0.60;;;27.20;40.70;;;;;;4958151;29;20526;-71
2022/07/16 10:57:00;;;;;;;0.60;0.50;;;27.20;40.60;;;;;;4956683;28;20440;-71
2022/07/16 19:18:26;;;;;;;0.70;0.60;;;23.10;49.90;;;;;;5091171;28;20548;-75
2022/07/16 19:20:53;;;;;;;0.80;0.60;;;23.20;49.90;;;;;;5090950;28;20457;-76
2022/07/16 19:23:20;;;;;;;2.40;0.63;;;23.50;49.40;;;;;;5090984;28;20491;-74
2022/07/16 19:25:47;;;;;;;1.00;0.70;;;23.80;48.50;;;;;;5090736;28;20501;-73
2022/07/16 19:28:14;;;;;;;0.70;0.60;;;24.10;47.60;;;;;;5090704;28;20437;-76
2022/07/16 19:30:42;;;;;;;0.60;0.50;;;24.40;48.70;;;;;;5090706;28;20498;-75
2022/07/16 19:33:09;;;;;;;0.70;0.60;;;24.70;47.20;;;;;;5090603;28;20445;-76
2022/07/16 19:35:37;;;;;;;0.80;0.80;;;24.90;47.70;;;;;;5090689;28;20856;-76
2022/07/16 19:38:05;;;;;;;0.60;0.50;;;25.00;47.10;;;;;;5090547;28;20910;-76
2022/07/16 19:40:32;;;;;;;0.70;0.60;;;25.20;47.30;;;;;;5090602;28;20503;-76
2022/07/16 19:42:59;;;;;;;1.23;0.60;;;25.30;46.70;;;;;;5090489;28;20441;-75
2022/07/16 19:45:25;;;;;;;0.70;0.60;;;25.30;47.80;;;;;;5090501;28;20444;-76
2022/07/16 19:47:52;;;;;;;0.70;0.60;;;25.40;47.50;;;;;;5090804;28;20437;-79
2022/07/16 19:50:18;;;;;;;0.70;0.70;;;25.40;47.80;;;;;;5091862;28;20452;-78
2022/07/16 19:52:46;;;;;;;0.80;0.70;;;25.40;47.50;;;;;;5093008;28;20910;-79
2022/07/16 19:58:03;;;;;;;0.70;0.60;;;25.40;47.30;;;;;;5091628;28;20460;-76
2022/07/16 20:00:30;;;;;;;0.70;0.60;;;25.40;47.50;;;;;;5092071;28;20529;-78
2022/07/16 20:02:59;;;;;;;0.80;0.70;;;25.40;47.40;;;;;;5092970;28;20448;-77
2022/07/16 20:05:25;;;;;;;1.30;0.60;;;25.30;47.90;;;;;;5092232;28;20453;-77
2022/07/16 20:07:54;;;;;;;0.80;0.70;;;25.30;47.80;;;;;;5089994;28;20867;-77
2022/07/16 20:10:20;;;;;;;0.70;0.60;;;25.30;47.90;;;;;;5090428;28;20445;-77
2022/07/16 20:12:47;;;;;;;0.70;0.60;;;25.20;48.40;;;;;;5090409;28;20464;-77
2022/07/16 20:15:14;;;;;;;0.80;0.63;;;25.20;48.40;;;;;;5091529;28;20445;-77
2022/07/16 20:17:41;;;;;;;0.80;0.60;;;25.10;48.80;;;;;;5090665;28;20571;-76
2022/07/16 20:20:09;;;;;;;0.70;0.60;;;25.10;48.80;;;;;;5091110;28;20454;-78
2022/07/16 20:22:36;;;;;;;1.00;0.70;;;25.10;48.90;;;;;;5089856;28;20556;-74
2022/07/16 20:25:07;;;;;;;1.20;0.80;;;25.00;48.20;;;;;;5089717;28;20445;-75
2022/07/16 20:27:34;;;;;;;0.77;0.77;;;25.00;48.70;;;;;;5088951;28;20524;-76
2022/07/16 20:30:00;;;;;;;0.70;0.60;;;25.00;48.60;;;;;;5075751;28;20449;-75
2022/07/16 20:32:27;;;;;;;0.67;0.60;;;25.00;48.30;;;;;;5076022;28;20499;-75
2022/07/16 20:34:54;;;;;;;0.70;0.60;;;24.90;48.20;;;;;;5076065;28;20446;-74
2022/07/16 20:37:22;;;;;;;0.70;0.60;;;24.90;48.20;;;;;;5076019;28;20469;-74
2022/07/16 20:39:49;;;;;;;0.80;0.60;;;24.80;48.30;;;;;;5076006;28;20438;-75
2022/07/16 20:42:17;;;;;;;0.70;0.60;;;24.70;48.90;;;;;;5075509;28;20813;-76
2022/07/16 20:44:43;;;;;;;0.80;0.60;;;24.70;48.70;;;;;;5075814;28;20445;-76
2022/07/16 20:47:10;;;;;;;0.70;0.70;;;24.70;48.80;;;;;;5075358;28;20799;-75
2022/07/16 20:49:37;;;;;;;0.70;0.60;;;24.60;48.70;;;;;;5075852;28;20971;-78
2022/07/16 20:52:04;;;;;;;1.10;0.60;;;24.50;48.60;;;;;;5075204;28;20469;-76
2022/07/16 20:54:30;;;;;;;0.80;0.70;;;24.50;48.60;;;;;;5075651;28;20441;-75
2022/07/16 20:56:57;;;;;;;0.70;0.60;;;24.50;48.60;;;;;;5075611;28;20480;-76
2022/07/16 20:59:25;;;;;;;0.70;0.70;;;24.40;48.60;;;;;;5075496;28;20499;-75
